createdAt,value
2023-03-01T00:01:12.117Z,4.43
2023-03-01T00:03:39.147Z,4.29
2023-03-01T00:06:06.367Z,4.17
2023-03-01T00:08:34.156Z,4.09
2023-03-01T00:11:05.924Z,4.12
2023-03-01T00:13:32.783Z,3.97
2023-03-01T00:15:59.384Z,4.20
2023-03-01T00:18:26.090Z,4.19
2023-03-01T00:20:54.002Z,4.16
2023-03-01T00:23:21.503Z,4.01
2023-03-01T00:25:48.315Z,4.03
2023-03-01T00:28:15.308Z,3.80
2023-03-01T00:30:42.001Z,3.80
2023-03-01T00:33:08.654Z,3.84
2023-03-01T00:35:36.141Z,3.92
2023-03-01T00:38:02.993Z,4.01
2023-03-01T00:40:31.619Z,4.02
2023-03-01T00:42:58.264Z,3.96
2023-03-01T00:45:25.302Z,3.78
2023-03-01T00:47:52.490Z,3.47
2023-03-01T00:50:19.626Z,3.80
2023-03-01T00:52:46.255Z,3.63
2023-03-01T00:55:13.159Z,3.88
2023-03-01T00:57:39.792Z,3.69
2023-03-01T01:00:07.926Z,3.94
2023-03-01T01:02:35.025Z,3.81
2023-03-01T01:05:01.565Z,3.82
2023-03-01T01:07:28.577Z,3.80
2023-03-01T01:09:55.115Z,3.91
2023-03-01T01:12:22.789Z,3.90
2023-03-01T01:14:49.441Z,3.84
2023-03-01T01:17:15.960Z,3.78
2023-03-01T01:19:42.746Z,3.98
2023-03-01T01:22:09.250Z,3.90
2023-03-01T01:24:36.107Z,3.99
2023-03-01T01:27:02.769Z,3.60
2023-03-01T01:29:29.456Z,3.58
2023-03-01T01:31:56.351Z,3.85
2023-03-01T01:34:22.960Z,3.75
2023-03-01T01:36:57.074Z,3.69
2023-03-01T01:39:23.677Z,3.74
2023-03-01T01:41:50.205Z,3.48
2023-03-01T01:44:26.861Z,3.36
2023-03-01T01:47:21.046Z,3.48
2023-03-01T01:49:52.241Z,3.45
2023-03-01T01:52:22.703Z,3.38
2023-03-01T01:54:55.323Z,3.36
2023-03-01T01:57:34.927Z,3.36
2023-03-01T02:00:11.029Z,3.41
2023-03-01T02:02:38.586Z,3.32
2023-03-01T02:05:34.565Z,3.35
2023-03-01T02:08:01.321Z,3.21
2023-03-01T02:10:28.991Z,3.09
2023-03-01T02:12:57.113Z,3.18
2023-03-01T02:15:24.945Z,3.25
2023-03-01T02:17:51.684Z,2.95
2023-03-01T02:20:34.613Z,3.04
2023-03-01T02:23:01.345Z,3.30
2023-03-01T02:25:42.998Z,3.18
2023-03-01T02:28:16.456Z,3.34
2023-03-01T02:31:04.432Z,3.26
2023-03-01T02:33:37.071Z,3.29
2023-03-01T02:36:37.560Z,3.26
2023-03-01T02:39:07.374Z,3.27
2023-03-01T02:41:37.285Z,3.23
2023-03-01T02:44:05.130Z,3.25
2023-03-01T02:46:32.106Z,3.33
2023-03-01T02:48:59.720Z,3.22
2023-03-01T02:51:42.673Z,3.33
2023-03-01T02:54:16.858Z,3.13
2023-03-01T02:56:44.254Z,3.25
2023-03-01T02:59:11.786Z,3.21
2023-03-01T03:01:38.388Z,3.30
2023-03-01T03:04:06.775Z,3.21
2023-03-01T03:06:33.558Z,3.16
2023-03-01T03:09:01.187Z,3.21
2023-03-01T03:11:27.993Z,3.16
2023-03-01T03:13:55.299Z,3.18
2023-03-01T03:16:22.502Z,3.18
2023-03-01T03:18:49.163Z,3.11
2023-03-01T03:21:17.320Z,3.02
2023-03-01T03:23:44.609Z,2.83
2023-03-01T03:26:14.321Z,2.67
2023-03-01T03:28:41.062Z,2.89
2023-03-01T03:31:09.224Z,2.76
2023-03-01T03:33:36.191Z,2.72
2023-03-01T03:36:02.778Z,2.67
2023-03-01T03:38:29.532Z,2.67
2023-03-01T03:41:14.339Z,2.72
2023-03-01T03:43:43.591Z,2.67
2023-03-01T03:46:11.778Z,2.60
2023-03-01T03:48:41.338Z,2.72
2023-03-01T03:51:08.518Z,2.66
2023-03-01T03:53:35.099Z,2.44
2023-03-01T03:56:01.692Z,2.64
2023-03-01T03:58:28.475Z,2.51
2023-03-01T04:00:57.144Z,2.70
2023-03-01T04:03:26.354Z,2.61
2023-03-01T04:05:53.402Z,2.56
2023-03-01T04:08:22.198Z,2.60
2023-03-01T04:10:53.378Z,2.51
2023-03-01T04:13:21.876Z,2.60
2023-03-01T04:15:54.094Z,2.55
2023-03-01T04:18:22.820Z,2.43
2023-03-01T04:20:49.678Z,2.58
2023-03-01T04:23:23.692Z,2.39
2023-03-01T04:25:57.893Z,2.53
2023-03-01T04:28:35.901Z,2.35
2023-03-01T04:31:15.142Z,2.14
2023-03-01T04:34:02.021Z,2.40
2023-03-01T04:36:30.254Z,2.25
2023-03-01T04:38:57.714Z,2.09
2023-03-01T04:41:25.668Z,1.90
2023-03-01T04:43:52.274Z,1.82
2023-03-01T04:46:20.722Z,2.06
2023-03-01T04:48:50.666Z,2.19
2023-03-01T04:51:17.734Z,1.85
2023-03-01T04:53:44.517Z,1.84
2023-03-01T04:56:11.580Z,2.00
2023-03-01T04:58:38.374Z,2.07
2023-03-01T05:01:19.801Z,1.94
2023-03-01T05:03:51.817Z,1.92
2023-03-01T05:06:19.503Z,1.84
2023-03-01T05:08:46.442Z,1.76
2023-03-01T05:11:13.108Z,1.15
2023-03-01T05:13:40.572Z,1.19
2023-03-01T05:16:12.421Z,1.33
2023-03-01T05:18:39.962Z,1.00
2023-03-01T05:21:09.484Z,0.78
2023-03-01T05:23:36.084Z,1.00
2023-03-01T05:26:06.243Z,1.38
2023-03-01T05:28:34.931Z,1.59
2023-03-01T05:31:02.341Z,1.65
2023-03-01T05:33:28.991Z,1.76
2023-03-01T05:35:55.634Z,1.82
2023-03-01T05:38:23.509Z,2.02
2023-03-01T05:40:50.107Z,1.95
2023-03-01T05:43:17.884Z,2.12
2023-03-01T05:45:45.041Z,2.15
2023-03-01T05:48:12.455Z,2.17
2023-03-01T05:50:46.786Z,2.18
2023-03-01T05:53:18.286Z,2.11
2023-03-01T05:55:45.315Z,2.25
2023-03-01T05:58:15.029Z,2.29
2023-03-01T06:00:42.997Z,2.23
2023-03-01T06:03:11.303Z,2.19
2023-03-01T06:05:38.183Z,2.37
2023-03-01T06:08:04.949Z,2.32
2023-03-01T06:10:31.620Z,2.24
2023-03-01T06:12:58.884Z,2.08
2023-03-01T06:15:26.218Z,1.89
2023-03-01T06:17:57.153Z,1.98
2023-03-01T06:20:26.610Z,2.10
2023-03-01T06:22:53.479Z,1.90
2023-03-01T06:25:22.735Z,2.05
2023-03-01T06:27:49.763Z,2.12
2023-03-01T06:30:18.706Z,2.18
2023-03-01T06:32:45.847Z,2.30
2023-03-01T06:35:14.637Z,2.28
2023-03-01T06:37:41.954Z,2.38
2023-03-01T06:40:09.774Z,2.22
2023-03-01T06:42:37.085Z,2.36
2023-03-01T06:45:05.150Z,2.53
2023-03-01T06:47:31.948Z,2.31
2023-03-01T06:49:58.487Z,2.57
2023-03-01T06:52:25.123Z,2.64
2023-03-01T06:54:51.762Z,2.71
2023-03-01T06:57:18.439Z,2.63
2023-03-01T06:59:45.030Z,2.80
2023-03-01T07:02:12.930Z,2.76
2023-03-01T07:04:40.469Z,2.78
2023-03-01T07:07:06.980Z,2.84
2023-03-01T07:09:33.800Z,3.06
2023-03-01T07:12:00.368Z,3.00
2023-03-01T07:14:27.104Z,3.07
2023-03-01T07:16:54.269Z,2.45
2023-03-01T07:19:21.489Z,2.97
2023-03-01T07:21:48.253Z,3.01
2023-03-01T07:24:15.400Z,2.98
2023-03-01T07:26:42.023Z,2.84
2023-03-01T07:29:10.826Z,2.53
2023-03-01T07:31:37.736Z,2.99
2023-03-01T07:34:04.348Z,3.10
2023-03-01T07:36:31.113Z,2.98
2023-03-01T07:38:58.826Z,2.58
2023-03-01T07:41:25.795Z,2.36
2023-03-01T07:43:52.367Z,2.88
2023-03-01T07:46:20.147Z,3.25
2023-03-01T07:48:47.230Z,3.58
2023-03-01T07:51:14.054Z,3.82
2023-03-01T07:53:40.790Z,3.26
2023-03-01T07:56:12.684Z,3.98
2023-03-01T07:58:43.083Z,4.20
2023-03-01T08:01:28.205Z,3.54
2023-03-01T08:04:00.990Z,3.80
2023-03-01T08:06:27.715Z,3.85
2023-03-01T08:08:59.300Z,4.45
2023-03-01T08:11:26.071Z,4.45
2023-03-01T08:13:53.274Z,5.07
2023-03-01T08:16:20.814Z,5.18
2023-03-01T08:18:47.316Z,5.33
2023-03-01T08:21:16.541Z,5.78
2023-03-01T08:23:43.909Z,5.74
2023-03-01T08:26:13.263Z,5.96
2023-03-01T08:28:40.147Z,5.41
2023-03-01T08:31:31.946Z,6.02
2023-03-01T08:34:00.838Z,5.77
2023-03-01T08:36:33.450Z,5.73
2023-03-01T08:39:00.773Z,5.58
2023-03-01T08:41:27.802Z,4.93
2023-03-01T08:43:59.404Z,5.20
2023-03-01T08:46:27.780Z,6.11
2023-03-01T08:48:54.345Z,5.84
2023-03-01T08:51:22.190Z,6.71
2023-03-01T08:53:49.332Z,6.25
2023-03-01T08:56:16.686Z,6.54
2023-03-01T08:58:48.371Z,6.67
2023-03-01T09:01:17.655Z,7.21
2023-03-01T09:03:44.808Z,7.04
2023-03-01T09:06:12.273Z,7.66
2023-03-01T09:08:41.393Z,7.40
2023-03-01T09:11:09.969Z,7.35
2023-03-01T09:13:37.092Z,8.15
2023-03-01T09:16:05.173Z,7.77
2023-03-01T09:18:32.397Z,7.80
2023-03-01T09:21:09.892Z,6.72
2023-03-01T09:23:42.329Z,7.27
2023-03-01T09:26:10.700Z,7.57
2023-03-01T09:28:38.377Z,7.42
2023-03-01T09:31:05.767Z,7.89
2023-03-01T09:33:33.624Z,8.46
2023-03-01T09:36:09.258Z,9.55
2023-03-01T09:38:35.995Z,9.40
2023-03-01T09:41:02.669Z,8.03
2023-03-01T09:43:46.438Z,9.76
2023-03-01T09:46:17.761Z,10.73
2023-03-01T09:48:50.300Z,10.43
2023-03-01T09:51:27.521Z,10.92
2023-03-01T09:53:55.600Z,11.78
2023-03-01T09:56:28.225Z,12.18
2023-03-01T09:59:16.180Z,17.29
2023-03-01T10:01:58.424Z,22.36
2023-03-01T10:04:28.321Z,26.29
2023-03-01T10:07:36.354Z,28.18
2023-03-01T10:10:06.591Z,30.64
2023-03-01T10:12:39.138Z,30.84
2023-03-01T10:15:13.510Z,31.02
2023-03-01T10:18:15.758Z,26.92
2023-03-01T10:21:18.456Z,31.49
2023-03-01T10:23:45.553Z,31.21
2023-03-01T10:26:21.355Z,32.26
2023-03-01T10:28:54.291Z,30.43
2023-03-01T10:31:29.164Z,29.50
2023-03-01T10:33:58.035Z,31.95
2023-03-01T10:36:25.003Z,29.69
2023-03-01T10:38:55.038Z,26.95
2023-03-01T10:41:25.480Z,27.79
2023-03-01T10:44:01.129Z,26.35
2023-03-01T10:46:30.645Z,29.90
2023-03-01T10:49:22.092Z,28.85
2023-03-01T10:51:53.362Z,27.46
2023-03-01T10:54:27.638Z,29.77
2023-03-01T10:56:56.533Z,31.61
2023-03-01T10:59:30.322Z,33.05
2023-03-01T11:02:24.877Z,32.33
2023-03-01T11:05:02.109Z,30.40
2023-03-01T11:07:31.858Z,30.65
2023-03-01T11:09:58.495Z,30.63
2023-03-01T11:12:25.448Z,28.99
2023-03-01T11:14:54.853Z,29.51
2023-03-01T11:17:34.738Z,30.87
2023-03-01T11:20:29.150Z,30.94
2023-03-01T11:22:58.870Z,32.71
2023-03-01T11:25:34.037Z,29.20
2023-03-01T11:28:03.315Z,30.63
2023-03-01T11:31:07.344Z,30.24
2023-03-01T11:33:49.528Z,29.91
2023-03-01T11:36:44.039Z,29.67
2023-03-01T11:39:36.734Z,27.10
2023-03-01T11:42:18.042Z,31.16
2023-03-01T11:44:50.971Z,35.08
2023-03-01T11:47:21.143Z,31.41
2023-03-01T11:50:09.937Z,28.29
2023-03-01T11:52:55.865Z,24.87
2023-03-01T11:55:48.911Z,30.46
2023-03-01T11:58:28.604Z,27.28
2023-03-01T12:01:02.745Z,29.14
2023-03-01T12:03:40.787Z,32.37
2023-03-01T12:06:19.251Z,32.75
2023-03-01T12:09:10.814Z,35.35
2023-03-01T12:11:37.387Z,36.99
2023-03-01T12:14:25.462Z,35.71
2023-03-01T12:17:29.073Z,31.88
2023-03-01T12:20:26.715Z,36.70
2023-03-01T12:23:20.792Z,33.48
2023-03-01T12:26:25.490Z,32.72
2023-03-01T12:29:08.409Z,32.85
2023-03-01T12:31:57.993Z,34.00
2023-03-01T12:35:01.734Z,33.38
2023-03-01T12:37:43.075Z,29.81
2023-03-01T12:40:18.666Z,24.82
2023-03-01T12:43:22.679Z,19.30
2023-03-01T12:45:56.029Z,17.29
2023-03-01T12:48:47.883Z,15.71
2023-03-01T12:51:23.735Z,14.30
2023-03-01T12:53:51.875Z,13.76
2023-03-01T12:56:22.167Z,13.30
2023-03-01T12:59:17.107Z,12.79
2023-03-01T13:01:49.545Z,12.45
2023-03-01T13:04:34.369Z,12.00
2023-03-01T13:07:25.779Z,11.90
2023-03-01T13:09:55.469Z,12.17
2023-03-01T13:12:47.090Z,12.30
2023-03-01T13:15:37.304Z,11.36
2023-03-01T13:18:03.785Z,11.50
2023-03-01T13:20:34.956Z,11.38
2023-03-01T13:23:05.023Z,10.94
2023-03-01T13:25:37.732Z,11.17
2023-03-01T13:28:36.328Z,11.35
2023-03-01T13:31:05.072Z,11.24
2023-03-01T13:33:31.551Z,11.55
2023-03-01T13:35:59.514Z,11.31
2023-03-01T13:38:59.934Z,10.92
2023-03-01T13:41:44.691Z,10.68
2023-03-01T13:44:36.899Z,10.80
2023-03-01T13:47:06.612Z,11.44
2023-03-01T13:49:45.897Z,11.42
2023-03-01T13:52:34.600Z,11.65
2023-03-01T13:55:02.799Z,11.56
2023-03-01T13:57:37.005Z,11.21
2023-03-01T14:00:05.776Z,11.49
2023-03-01T14:02:33.060Z,11.67
2023-03-01T14:05:00.789Z,11.99
2023-03-01T14:07:31.205Z,12.16
2023-03-01T14:10:05.027Z,11.87
2023-03-01T14:13:01.301Z,11.44
2023-03-01T14:15:40.760Z,11.97
2023-03-01T14:18:28.496Z,11.67
2023-03-01T14:20:55.603Z,11.68
2023-03-01T14:23:24.336Z,11.66
2023-03-01T14:26:00.234Z,11.61
2023-03-01T14:28:28.996Z,11.22
2023-03-01T14:31:01.024Z,11.26
2023-03-01T14:33:34.226Z,11.14
2023-03-01T14:36:12.833Z,11.37
2023-03-01T14:38:45.700Z,11.61
2023-03-01T14:41:17.588Z,11.80
2023-03-01T14:43:47.852Z,11.99
2023-03-01T14:46:38.883Z,12.02
2023-03-01T14:49:18.992Z,12.03
2023-03-01T14:51:57.604Z,12.15
2023-03-01T14:54:44.772Z,11.95
2023-03-01T14:57:25.850Z,11.17
2023-03-01T14:59:55.537Z,11.85
2023-03-01T15:02:24.515Z,11.59
2023-03-01T15:04:54.307Z,11.89
2023-03-01T15:07:21.132Z,11.13
2023-03-01T15:09:48.367Z,11.21
2023-03-01T15:12:30.288Z,11.40
2023-03-01T15:15:04.184Z,10.85
2023-03-01T15:17:36.277Z,10.76
2023-03-01T15:20:07.524Z,11.29
2023-03-01T15:22:34.246Z,10.31
2023-03-01T15:25:01.304Z,11.08
2023-03-01T15:27:28.343Z,10.91
2023-03-01T15:29:58.690Z,10.26
2023-03-01T15:32:34.992Z,10.90
2023-03-01T15:35:22.765Z,10.73
2023-03-01T15:37:50.646Z,10.47
2023-03-01T15:40:34.028Z,10.59
2023-03-01T15:43:02.150Z,10.47
2023-03-01T15:45:31.186Z,10.19
2023-03-01T15:48:02.441Z,10.43
2023-03-01T15:50:31.370Z,10.57
2023-03-01T15:52:59.430Z,10.76
2023-03-01T15:55:31.148Z,10.35
2023-03-01T15:58:06.006Z,10.22
2023-03-01T16:00:32.631Z,10.30
2023-03-01T16:02:59.524Z,10.59
2023-03-01T16:05:29.583Z,9.96
2023-03-01T16:07:56.110Z,9.96
2023-03-01T16:10:23.199Z,10.04
2023-03-01T16:12:53.550Z,10.11
2023-03-01T16:15:21.821Z,10.39
2023-03-01T16:17:48.638Z,9.94
2023-03-01T16:20:27.141Z,9.85
2023-03-01T16:22:55.015Z,9.67
2023-03-01T16:25:22.096Z,9.56
2023-03-01T16:27:51.879Z,9.42
2023-03-01T16:30:21.055Z,9.24
2023-03-01T16:32:48.842Z,9.26
2023-03-01T16:35:17.608Z,9.11
2023-03-01T16:37:44.573Z,9.32
2023-03-01T16:40:18.412Z,8.94
2023-03-01T16:42:45.215Z,8.59
2023-03-01T16:45:22.846Z,9.01
2023-03-01T16:47:50.928Z,9.01
2023-03-01T16:50:17.472Z,8.56
2023-03-01T16:52:44.122Z,8.46
2023-03-01T16:55:11.386Z,8.29
2023-03-01T16:57:39.107Z,8.53
2023-03-01T17:00:08.540Z,8.35
2023-03-01T17:02:36.636Z,8.40
2023-03-01T17:05:04.142Z,8.03
2023-03-01T17:07:34.381Z,8.36
2023-03-01T17:10:06.653Z,8.18
2023-03-01T17:12:34.914Z,8.30
2023-03-01T17:15:01.575Z,7.94
2023-03-01T17:17:28.263Z,7.91
2023-03-01T17:19:55.015Z,7.96
2023-03-01T17:22:21.573Z,8.22
2023-03-01T17:24:48.181Z,8.07
2023-03-01T17:27:16.042Z,8.16
2023-03-01T17:29:42.775Z,8.21
2023-03-01T17:32:10.325Z,8.45
2023-03-01T17:34:37.575Z,8.54
2023-03-01T17:37:04.179Z,8.02
2023-03-01T17:39:36.003Z,8.23
2023-03-01T17:42:05.204Z,8.20
2023-03-01T17:44:35.323Z,8.49
2023-03-01T17:47:02.956Z,8.46
2023-03-01T17:49:29.842Z,8.44
2023-03-01T17:51:56.726Z,8.65
2023-03-01T17:54:23.896Z,8.46
2023-03-01T17:56:51.025Z,8.55
2023-03-01T17:59:17.860Z,8.31
2023-03-01T18:01:44.906Z,8.24
2023-03-01T18:04:14.115Z,7.87
2023-03-01T18:06:41.065Z,7.97
2023-03-01T18:09:08.123Z,7.81
2023-03-01T18:11:35.567Z,7.49
2023-03-01T18:14:02.809Z,7.37
2023-03-01T18:16:31.974Z,6.81
2023-03-01T18:18:58.780Z,7.44
2023-03-01T18:21:25.359Z,7.22
2023-03-01T18:23:52.667Z,7.14
2023-03-01T18:26:22.120Z,7.18
2023-03-01T18:28:50.937Z,6.65
2023-03-01T18:31:21.713Z,6.78
2023-03-01T18:33:50.137Z,6.81
2023-03-01T18:36:28.616Z,6.57
2023-03-01T18:38:56.592Z,6.79
2023-03-01T18:41:25.887Z,6.62
2023-03-01T18:43:52.948Z,6.58
2023-03-01T18:46:20.425Z,6.55
2023-03-01T18:48:47.803Z,6.63
2023-03-01T18:51:16.597Z,6.71
2023-03-01T18:53:43.529Z,6.50
2023-03-01T18:56:10.758Z,7.01
2023-03-01T18:58:38.029Z,6.75
2023-03-01T19:01:08.067Z,6.79
2023-03-01T19:03:35.581Z,6.87
2023-03-01T19:06:02.215Z,6.99
2023-03-01T19:08:30.545Z,6.53
2023-03-01T19:11:03.361Z,6.63
2023-03-01T19:13:32.122Z,6.65
2023-03-01T19:16:08.833Z,6.18
2023-03-01T19:18:36.502Z,6.53
2023-03-01T19:21:04.930Z,6.25
2023-03-01T19:23:35.141Z,6.59
2023-03-01T19:26:03.247Z,6.44
2023-03-01T19:28:29.820Z,6.46
2023-03-01T19:31:08.327Z,6.46
2023-03-01T19:33:36.166Z,5.81
2023-03-01T19:36:04.277Z,6.59
2023-03-01T19:38:31.062Z,6.42
2023-03-01T19:40:58.189Z,6.17
2023-03-01T19:43:25.226Z,6.41
2023-03-01T19:45:52.780Z,6.50
2023-03-01T19:48:19.704Z,6.36
2023-03-01T19:50:46.509Z,6.56
2023-03-01T19:53:14.189Z,6.65
2023-03-01T19:55:40.943Z,6.41
2023-03-01T19:58:08.053Z,6.39
2023-03-01T20:00:34.960Z,6.34
2023-03-01T20:03:02.078Z,6.23
2023-03-01T20:05:29.259Z,6.22
2023-03-01T20:07:57.491Z,6.39
2023-03-01T20:10:28.464Z,5.84
2023-03-01T20:12:55.164Z,6.23
2023-03-01T20:15:21.952Z,6.02
2023-03-01T20:17:48.624Z,5.97
2023-03-01T20:20:15.598Z,6.06
2023-03-01T20:22:43.353Z,6.06
2023-03-01T20:25:10.426Z,6.01
2023-03-01T20:27:37.080Z,6.02
2023-03-01T20:30:04.782Z,6.02
2023-03-01T20:32:32.698Z,6.01
2023-03-01T20:34:59.790Z,6.26
2023-03-01T20:37:26.382Z,6.11
2023-03-01T20:39:53.212Z,5.93
2023-03-01T20:42:19.731Z,6.21
2023-03-01T20:44:46.347Z,6.03
2023-03-01T20:47:13.286Z,5.88
2023-03-01T20:49:39.833Z,5.47
2023-03-01T20:52:06.964Z,5.87
2023-03-01T20:54:33.690Z,5.83
2023-03-01T20:57:00.244Z,5.93
2023-03-01T20:59:26.896Z,5.58
2023-03-01T21:01:53.675Z,5.60
2023-03-01T21:04:20.327Z,5.53
2023-03-01T21:06:47.065Z,5.53
2023-03-01T21:09:13.630Z,5.53
2023-03-01T21:11:40.135Z,5.48
2023-03-01T21:14:07.018Z,5.19
2023-03-01T21:16:35.126Z,5.40
2023-03-01T21:19:02.864Z,4.55
2023-03-01T21:21:29.601Z,5.02
2023-03-01T21:23:56.186Z,5.37
2023-03-01T21:26:24.949Z,5.42
2023-03-01T21:28:55.864Z,5.43
2023-03-01T21:31:27.592Z,5.44
2023-03-01T21:33:56.662Z,5.24
2023-03-01T21:36:25.329Z,5.36
2023-03-01T21:38:52.486Z,5.09
2023-03-01T21:41:25.572Z,5.40
2023-03-01T21:43:53.915Z,5.58
2023-03-01T21:46:22.966Z,5.33
2023-03-01T21:48:51.548Z,5.68
2023-03-01T21:51:20.603Z,5.51
2023-03-01T21:53:47.398Z,5.52
2023-03-01T21:56:19.209Z,5.71
2023-03-01T21:58:45.910Z,5.66
2023-03-01T22:01:15.581Z,5.83
2023-03-01T22:03:46.324Z,6.02
2023-03-01T22:06:19.289Z,5.95
2023-03-01T22:08:50.799Z,5.67
2023-03-01T22:11:18.469Z,6.03
2023-03-01T22:13:52.177Z,6.21
2023-03-01T22:16:20.675Z,6.05
2023-03-01T22:18:47.816Z,5.96
2023-03-01T22:21:15.472Z,5.90
2023-03-01T22:23:42.740Z,5.91
2023-03-01T22:26:25.878Z,6.10
2023-03-01T22:28:53.494Z,5.78
2023-03-01T22:31:20.383Z,5.71
2023-03-01T22:33:46.990Z,5.98
2023-03-01T22:36:13.591Z,6.04
2023-03-01T22:38:40.224Z,6.11
2023-03-01T22:41:07.204Z,5.88
2023-03-01T22:43:34.523Z,5.79
2023-03-01T22:46:10.384Z,5.52
2023-03-01T22:48:36.974Z,5.80
2023-03-01T22:51:03.707Z,5.56
2023-03-01T22:53:30.795Z,5.59
2023-03-01T22:55:57.323Z,5.50
2023-03-01T22:58:23.979Z,5.33
2023-03-01T23:00:50.544Z,5.25
2023-03-01T23:03:17.999Z,5.07
2023-03-01T23:05:45.010Z,5.28
2023-03-01T23:08:12.266Z,5.07
2023-03-01T23:10:41.853Z,4.69
2023-03-01T23:13:08.500Z,5.03
2023-03-01T23:15:35.106Z,5.01
2023-03-01T23:18:01.625Z,4.94
2023-03-01T23:20:28.584Z,5.22
2023-03-01T23:23:01.475Z,4.89
2023-03-01T23:25:28.875Z,5.32
2023-03-01T23:27:55.731Z,5.33
2023-03-01T23:30:22.953Z,5.49
2023-03-01T23:32:50.422Z,5.55
2023-03-01T23:35:17.139Z,5.54
2023-03-01T23:37:45.392Z,5.41
2023-03-01T23:40:12.868Z,5.77
2023-03-01T23:42:40.730Z,5.60
2023-03-01T23:45:08.795Z,5.41
2023-03-01T23:47:36.152Z,5.64
2023-03-01T23:50:03.231Z,5.62
2023-03-01T23:52:30.834Z,5.20
2023-03-01T23:54:57.468Z,5.32
2023-03-01T23:57:24.078Z,5.20
2023-03-01T23:59:50.732Z,5.15
